Time;durP1;ratioP1;P1;durP2;ratioP2;P2;SDS_P1;SDS_P2;PMS_P1;PMS_P2;Temp;Humidity;BMP_temperature;BMP_pressure;BME280_temperature;BME280_humidity;BME280_pressure;Samples;Min_cycle;Max_cycle;Signal;HPM_P1;HPM_P2
2023/04/26 05:54:34;;;;;;;2.85;2.10;;;;;;;;;;5525251;23;20022;-76
2023/04/26 05:57:00;;;;;;;1.88;1.67;;;;;;;;;;4933206;29;20127;-74
2023/04/26 05:59:30;;;;;;;1.98;1.70;;;;;;;;;;4936974;29;20105;-75
2023/04/26 06:01:55;;;;;;;2.30;1.70;;;;;;;;;;4937116;29;20411;-73
2023/04/26 06:04:20;;;;;;;1.67;1.55;;;;;;;;;;4936851;29;20042;-73
2023/04/26 06:06:46;;;;;;;2.00;1.75;;;;;;;;;;4936500;29;20551;-74
2023/04/26 06:09:11;;;;;;;1.55;1.40;;;;;;;;;;4936668;29;20026;-74
2023/04/26 09:39:34;;;;;;;1.03;0.80;;;;;;;;;;4915885;29;20056;-74
2023/04/26 09:42:00;;;;;;;0.80;0.80;;;;;;;;;;4918377;29;20033;-77
2023/04/26 09:44:28;;;;;;;1.15;0.90;;;;;;;;;;4918211;29;20040;-77
2023/04/26 09:47:02;;;;;;;1.27;1.10;;;;;;;;;;4918254;29;20080;-76
2023/04/26 09:49:31;;;;;;;1.30;1.20;;;;;;;;;;4918073;29;20032;-76
2023/04/26 09:52:05;;;;;;;3.78;1.17;;;;;;;;;;4918218;29;20436;-76
2023/04/26 09:54:42;;;;;;;1.58;1.17;;;;;;;;;;4918074;29;20028;-76
2023/04/26 09:57:07;;;;;;;1.73;1.45;;;;;;;;;;4917748;29;20111;-76
2023/04/26 09:59:43;;;;;;;2.72;1.48;;;;;;;;;;4917668;29;20452;-76
2023/04/26 10:02:14;;;;;;;4.07;1.20;;;;;;;;;;4917795;29;20035;-77
2023/04/26 10:04:43;;;;;;;1.38;1.27;;;;;;;;;;4917983;29;20119;-77
2023/04/26 10:07:08;;;;;;;2.38;1.08;;;;;;;;;;4917842;29;20487;-75
2023/04/26 10:09:34;;;;;;;0.93;0.93;;;;;;;;;;4918117;29;20043;-75
2023/04/26 10:12:01;;;;;;;1.02;1.02;;;;;;;;;;4917767;29;20039;-74
2023/04/26 10:14:26;;;;;;;1.63;1.00;;;;;;;;;;4917563;29;20032;-74
2023/04/26 10:16:53;;;;;;;1.67;1.10;;;;;;;;;;4917967;29;20032;-74
2023/04/26 10:19:21;;;;;;;1.10;1.10;;;;;;;;;;4917637;29;20020;-76
2023/04/26 10:21:49;;;;;;;2.05;1.23;;;;;;;;;;4917942;29;20032;-74
2023/04/26 10:24:15;;;;;;;1.40;1.30;;;;;;;;;;4917567;29;20036;-75
2023/04/26 10:26:50;;;;;;;1.60;1.35;;;;;;;;;;4917853;29;20039;-75
2023/04/26 10:29:16;;;;;;;1.58;1.20;;;;;;;;;;4917416;29;20492;-75
2023/04/26 10:32:07;;;;;;;1.80;1.20;;;;;;;;;;4917291;29;20118;-75
2023/04/26 10:34:33;;;;;;;1.30;1.15;;;;;;;;;;4917204;29;20066;-77
2023/04/26 10:37:10;;;;;;;1.52;1.30;;;;;;;;;;4917492;29;20060;-81
2023/04/26 10:39:38;;;;;;;1.48;1.38;;;;;;;;;;4933236;29;20054;-79
2023/04/26 10:42:23;;;;;;;2.47;1.23;;;;;;;;;;4936378;29;20038;-76
2023/04/26 10:44:51;;;;;;;1.35;1.15;;;;;;;;;;4936314;29;20106;-78
2023/04/26 10:47:26;;;;;;;1.38;1.00;;;;;;;;;;4936288;29;20028;-76
2023/04/26 10:49:52;;;;;;;1.17;1.10;;;;;;;;;;4936201;29;20386;-77
2023/04/26 10:52:21;;;;;;;1.23;1.10;;;;;;;;;;4936098;29;20027;-78
2023/04/26 10:54:57;;;;;;;1.30;1.10;;;;;;;;;;4936394;29;20123;-74
2023/04/26 10:57:49;;;;;;;1.42;1.00;;;;;;;;;;4936398;29;20024;-76
2023/04/26 11:00:24;;;;;;;1.25;1.00;;;;;;;;;;4936109;29;20027;-75
2023/04/26 11:02:57;;;;;;;2.35;1.15;;;;;;;;;;4936101;29;20096;-76
2023/04/26 11:05:50;;;;;;;1.00;0.98;;;;;;;;;;4936117;29;20103;-74
2023/04/26 11:08:23;;;;;;;0.90;0.90;;;;;;;;;;4936214;29;20027;-76
2023/04/26 11:10:51;;;;;;;2.30;1.10;;;;;;;;;;4939608;29;20067;-76
2023/04/26 11:13:18;;;;;;;1.10;1.00;;;;;;;;;;4922632;29;20028;-74
2023/04/26 11:15:45;;;;;;;1.88;1.20;;;;;;;;;;4939783;29;20030;-79
2023/04/26 11:18:10;;;;;;;1.60;1.17;;;;;;;;;;4939799;29;20040;-74
2023/04/26 11:20:36;;;;;;;1.50;1.40;;;;;;;;;;4940069;29;20031;-74
2023/04/26 11:23:01;;;;;;;1.48;1.38;;;;;;;;;;4939735;29;20023;-75
2023/04/26 11:25:28;;;;;;;1.55;1.20;;;;;;;;;;4939367;29;20530;-75
2023/04/26 11:28:01;;;;;;;5.53;1.50;;;;;;;;;;4939815;29;20482;-74
2023/04/26 11:30:32;;;;;;;1.88;1.77;;;;;;;;;;4939814;29;20027;-75
2023/04/26 11:32:59;;;;;;;2.85;2.50;;;;;;;;;;4939678;29;20545;-75
2023/04/26 11:35:26;;;;;;;4.30;3.90;;;;;;;;;;4939548;29;20020;-75
2023/04/26 11:37:52;;;;;;;4.78;4.32;;;;;;;;;;4939308;29;20028;-75
2023/04/26 11:40:18;;;;;;;4.63;4.22;;;;;;;;;;4939659;29;20091;-75
2023/04/26 11:42:44;;;;;;;4.18;3.78;;;;;;;;;;4939661;29;20364;-74
2023/04/26 11:45:10;;;;;;;3.78;2.60;;;;;;;;;;4939373;29;20079;-75
2023/04/26 17:35:42;;;;;;;2.05;1.40;;;;;;;;;;5070216;23;20096;-74
2023/04/26 17:38:07;;;;;;;1.95;1.80;;;;;;;;;;4937107;29;20060;-75
2023/04/26 17:40:32;;;;;;;1.67;1.58;;;;;;;;;;4937283;29;20024;-73
2023/04/26 17:42:58;;;;;;;2.38;1.65;;;;;;;;;;4937515;29;20123;-75
2023/04/26 17:45:24;;;;;;;2.38;2.17;;;;;;;;;;4937070;29;20020;-74
2023/04/26 17:47:49;;;;;;;2.83;2.38;;;;;;;;;;4937436;29;20027;-78
2023/04/26 17:50:16;;;;;;;2.13;1.92;;;;;;;;;;4937117;29;20103;-75
2023/04/26 17:52:42;;;;;;;2.47;1.88;;;;;;;;;;4936912;29;20023;-76
2023/04/26 17:55:08;;;;;;;2.80;2.17;;;;;;;;;;4937122;29;20398;-76
2023/04/26 17:57:35;;;;;;;4.35;2.25;;;;;;;;;;4946576;29;20024;-76
2023/04/26 18:00:00;;;;;;;2.78;1.85;;;;;;;;;;4939655;29;20047;-76
2023/04/26 18:02:26;;;;;;;1.98;1.70;;;;;;;;;;4936793;29;20028;-75
2023/04/26 18:04:52;;;;;;;4.03;3.63;;;;;;;;;;4937159;29;20036;-75
2023/04/26 18:07:18;;;;;;;5.32;2.60;;;;;;;;;;4936863;29;20595;-75
2023/04/26 18:09:43;;;;;;;3.72;2.13;;;;;;;;;;4936915;29;20159;-75
2023/04/26 18:12:09;;;;;;;2.00;1.75;;;;;;;;;;4936570;29;20043;-75
2023/04/26 18:14:35;;;;;;;2.35;1.88;;;;;;;;;;4936829;29;20035;-75
2023/04/26 18:17:00;;;;;;;1.88;1.77;;;;;;;;;;4936839;29;20020;-76
2023/04/26 18:19:26;;;;;;;3.20;2.90;;;;;;;;;;4936166;29;20019;-76
2023/04/26 18:21:52;;;;;;;2.78;2.45;;;;;;;;;;4936644;29;20046;-74
2023/04/26 18:24:18;;;;;;;2.20;2.00;;;;;;;;;;4936616;29;20027;-73
2023/04/26 18:26:44;;;;;;;2.90;1.80;;;;;;;;;;4936535;29;20435;-78
2023/04/26 18:29:09;;;;;;;2.05;1.80;;;;;;;;;;4936448;29;20019;-73
2023/04/26 18:31:35;;;;;;;1.77;1.63;;;;;;;;;;4936900;29;20375;-74
2023/04/26 18:34:00;;;;;;;3.15;1.67;;;;;;;;;;4936323;29;20509;-75
2023/04/26 18:36:28;;;;;;;7.00;5.53;;;;;;;;;;4936410;29;20039;-74
2023/04/26 18:38:55;;;;;;;5.40;4.53;;;;;;;;;;4936238;29;20031;-74
2023/04/26 18:41:20;;;;;;;2.65;2.45;;;;;;;;;;4936373;29;20032;-74
2023/04/26 18:43:46;;;;;;;2.30;2.10;;;;;;;;;;4936198;29;20091;-74
2023/04/26 18:46:11;;;;;;;4.88;4.45;;;;;;;;;;4936574;29;20024;-75
2023/04/26 18:48:36;;;;;;;7.25;4.95;;;;;;;;;;4936518;29;20467;-74
2023/04/26 18:51:02;;;;;;;5.68;3.40;;;;;;;;;;4936473;29;20545;-74
2023/04/26 18:53:28;;;;;;;3.92;3.53;;;;;;;;;;4936242;29;20032;-74
2023/04/26 18:55:55;;;;;;;4.50;3.40;;;;;;;;;;4936281;29;20103;-74
2023/04/26 18:58:20;;;;;;;4.60;2.90;;;;;;;;;;4934206;29;20038;-73
2023/04/26 19:00:48;;;;;;;3.50;2.92;;;;;;;;;;4935906;29;20024;-76
2023/04/26 19:03:14;;;;;;;3.55;2.83;;;;;;;;;;4936095;29;20028;-73
2023/04/26 19:05:40;;;;;;;6.57;4.03;;;;;;;;;;4936194;29;20020;-74
2023/04/26 19:08:06;;;;;;;4.10;3.63;;;;;;;;;;4935938;29;20023;-78
2023/04/26 19:10:31;;;;;;;3.53;3.20;;;;;;;;;;4936197;29;20042;-74
2023/04/26 19:12:57;;;;;;;4.00;3.17;;;;;;;;;;4918815;29;20040;-74
2023/04/26 19:15:22;;;;;;;3.85;3.05;;;;;;;;;;4935888;29;20027;-80
2023/04/26 19:17:48;;;;;;;2.60;2.40;;;;;;;;;;4936038;29;20028;-76
2023/04/26 19:20:14;;;;;;;3.85;2.30;;;;;;;;;;4936017;29;20030;-75
2023/04/26 19:22:44;;;;;;;2.70;2.17;;;;;;;;;;4936047;29;20055;-75
2023/04/26 19:25:09;;;;;;;3.00;2.60;;;;;;;;;;4935899;29;20082;-74
2023/04/26 19:27:35;;;;;;;5.68;2.30;;;;;;;;;;4918763;29;20036;-74
2023/04/26 19:30:01;;;;;;;3.25;2.10;;;;;;;;;;4936475;29;20066;-75
2023/04/26 19:32:26;;;;;;;4.22;2.92;;;;;;;;;;4939663;29;20518;-73
2023/04/26 19:34:51;;;;;;;3.90;2.97;;;;;;;;;;4939528;29;20459;-73
2023/04/26 19:37:17;;;;;;;3.38;2.42;;;;;;;;;;4939395;29;20462;-73
2023/04/26 19:39:43;;;;;;;3.33;2.60;;;;;;;;;;4939344;29;20500;-74
2023/04/26 19:42:09;;;;;;;3.17;2.42;;;;;;;;;;4939168;29;20024;-73
2023/04/26 19:44:35;;;;;;;3.15;2.85;;;;;;;;;;4939593;29;20383;-74
2023/04/26 19:47:00;;;;;;;3.10;2.80;;;;;;;;;;4939296;29;20031;-73
2023/04/26 19:49:26;;;;;;;4.57;3.03;;;;;;;;;;4939472;29;20028;-76
2023/04/26 19:51:51;;;;;;;3.58;2.45;;;;;;;;;;4939063;29;20027;-74
2023/04/26 19:54:17;;;;;;;4.35;4.05;;;;;;;;;;4939093;29;20032;-74
2023/04/26 19:56:42;;;;;;;5.55;4.65;;;;;;;;;;4939089;29;20485;-75
2023/04/26 19:59:08;;;;;;;3.50;3.20;;;;;;;;;;4939043;29;20074;-74
2023/04/26 20:01:33;;;;;;;3.80;2.97;;;;;;;;;;4938820;29;20039;-74
2023/04/26 20:03:59;;;;;;;2.55;2.35;;;;;;;;;;4938904;29;20479;-74
2023/04/26 20:06:25;;;;;;;2.85;2.53;;;;;;;;;;4938927;29;20078;-74
2023/04/26 20:08:50;;;;;;;2.97;2.47;;;;;;;;;;4938938;29;20034;-73
2023/04/26 20:11:17;;;;;;;2.55;2.35;;;;;;;;;;4938884;29;20027;-73
2023/04/26 20:13:43;;;;;;;3.03;2.38;;;;;;;;;;4938582;29;20034;-74
2023/04/26 20:16:09;;;;;;;3.47;2.72;;;;;;;;;;4939042;29;20051;-73
2023/04/26 20:18:35;;;;;;;3.35;3.05;;;;;;;;;;4938773;29;20107;-74
2023/04/26 20:21:01;;;;;;;4.88;2.70;;;;;;;;;;4921668;29;20562;-73
2023/04/26 20:23:26;;;;;;;4.47;2.72;;;;;;;;;;4938457;29;20040;-73
2023/04/26 20:25:52;;;;;;;3.88;2.45;;;;;;;;;;4938435;29;20060;-74
2023/04/26 20:28:18;;;;;;;2.45;2.13;;;;;;;;;;4938417;29;20467;-73
2023/04/26 20:30:43;;;;;;;2.63;2.42;;;;;;;;;;4938477;29;20028;-73
2023/04/26 20:33:08;;;;;;;2.30;2.10;;;;;;;;;;4945165;29;20368;-74
2023/04/26 20:35:34;;;;;;;3.35;2.70;;;;;;;;;;4957497;29;20453;-73
2023/04/26 20:37:59;;;;;;;3.15;2.65;;;;;;;;;;4957816;29;20028;-74
